sensor_id;sensor_type;location;lat;lon;timestamp;P1;durP1;ratioP1;P2;durP2;ratioP2
85544;SDS011;75982;52.834;13.846;2024-03-23T00:51:44;11.50;;;2.33;;
85544;SDS011;75982;52.834;13.846;2024-03-23T00:54:10;11.65;;;2.88;;
85544;SDS011;75982;52.834;13.846;2024-03-23T00:56:36;7.78;;;2.58;;
85544;SDS011;75982;52.834;13.846;2024-03-23T00:59:01;9.77;;;2.75;;
85544;SDS011;75982;52.834;13.846;2024-03-23T01:01:27;11.68;;;2.83;;
85544;SDS011;75982;52.834;13.846;2024-03-23T01:03:52;8.70;;;2.20;;
85544;SDS011;75982;52.834;13.846;2024-03-23T01:06:18;13.80;;;2.60;;
85544;SDS011;75982;52.834;13.846;2024-03-23T01:08:43;8.75;;;2.72;;
85544;SDS011;75982;52.834;13.846;2024-03-23T01:11:09;14.30;;;2.95;;
85544;SDS011;75982;52.834;13.846;2024-03-23T01:13:34;12.23;;;2.83;;
85544;SDS011;75982;52.834;13.846;2024-03-23T01:16:00;10.77;;;2.50;;
85544;SDS011;75982;52.834;13.846;2024-03-23T01:18:25;10.52;;;2.45;;
85544;SDS011;75982;52.834;13.846;2024-03-23T01:20:51;14.73;;;2.53;;
85544;SDS011;75982;52.834;13.846;2024-03-23T01:23:16;11.90;;;2.33;;
85544;SDS011;75982;52.834;13.846;2024-03-23T01:25:42;11.40;;;2.80;;
85544;SDS011;75982;52.834;13.846;2024-03-23T01:28:08;16.02;;;2.85;;
85544;SDS011;75982;52.834;13.846;2024-03-23T01:30:34;11.05;;;2.33;;
85544;SDS011;75982;52.834;13.846;2024-03-23T01:33:00;12.20;;;2.70;;
85544;SDS011;75982;52.834;13.846;2024-03-23T01:35:26;12.23;;;3.05;;
85544;SDS011;75982;52.834;13.846;2024-03-23T01:37:51;10.52;;;2.53;;
85544;SDS011;75982;52.834;13.846;2024-03-23T01:40:17;10.98;;;2.85;;
85544;SDS011;75982;52.834;13.846;2024-03-23T01:42:43;14.90;;;2.72;;
85544;SDS011;75982;52.834;13.846;2024-03-23T01:45:20;6.97;;;2.47;;
85544;SDS011;75982;52.834;13.846;2024-03-23T01:47:46;17.73;;;3.42;;
85544;SDS011;75982;52.834;13.846;2024-03-23T01:50:11;7.35;;;2.08;;
85544;SDS011;75982;52.834;13.846;2024-03-23T01:52:37;9.50;;;2.45;;
85544;SDS011;75982;52.834;13.846;2024-03-23T01:55:03;9.93;;;2.47;;
85544;SDS011;75982;52.834;13.846;2024-03-23T01:57:28;9.88;;;2.78;;
85544;SDS011;75982;52.834;13.846;2024-03-23T01:59:54;13.95;;;3.15;;
85544;SDS011;75982;52.834;13.846;2024-03-23T02:02:20;12.15;;;2.83;;
85544;SDS011;75982;52.834;13.846;2024-03-23T02:04:46;13.90;;;2.95;;
85544;SDS011;75982;52.834;13.846;2024-03-23T02:07:11;10.65;;;2.67;;
85544;SDS011;75982;52.834;13.846;2024-03-23T02:09:37;17.50;;;3.17;;
85544;SDS011;75982;52.834;13.846;2024-03-23T02:12:02;13.45;;;2.80;;
85544;SDS011;75982;52.834;13.846;2024-03-23T02:14:28;14.30;;;2.60;;
85544;SDS011;75982;52.834;13.846;2024-03-23T02:16:54;10.82;;;2.70;;
85544;SDS011;75982;52.834;13.846;2024-03-23T02:19:20;10.65;;;2.25;;
85544;SDS011;75982;52.834;13.846;2024-03-23T02:21:45;14.60;;;2.63;;
85544;SDS011;75982;52.834;13.846;2024-03-23T02:24:11;11.77;;;2.20;;
85544;SDS011;75982;52.834;13.846;2024-03-23T02:26:36;12.85;;;2.72;;
85544;SDS011;75982;52.834;13.846;2024-03-23T02:29:02;10.95;;;2.35;;
85544;SDS011;75982;52.834;13.846;2024-03-23T02:31:27;9.15;;;2.30;;
85544;SDS011;75982;52.834;13.846;2024-03-23T02:33:53;8.07;;;2.28;;
85544;SDS011;75982;52.834;13.846;2024-03-23T02:36:18;19.48;;;2.83;;
85544;SDS011;75982;52.834;13.846;2024-03-23T02:38:44;8.38;;;2.53;;
85544;SDS011;75982;52.834;13.846;2024-03-23T02:41:09;13.50;;;2.95;;
85544;SDS011;75982;52.834;13.846;2024-03-23T02:43:35;11.95;;;2.38;;
85544;SDS011;75982;52.834;13.846;2024-03-23T02:46:00;13.45;;;2.65;;
85544;SDS011;75982;52.834;13.846;2024-03-23T02:48:26;12.00;;;3.08;;
85544;SDS011;75982;52.834;13.846;2024-03-23T02:50:51;17.42;;;3.15;;
85544;SDS011;75982;52.834;13.846;2024-03-23T02:53:17;14.55;;;3.15;;
85544;SDS011;75982;52.834;13.846;2024-03-23T02:55:43;11.13;;;2.55;;
85544;SDS011;75982;52.834;13.846;2024-03-23T02:58:09;10.80;;;2.50;;
85544;SDS011;75982;52.834;13.846;2024-03-23T03:00:34;10.95;;;3.47;;
85544;SDS011;75982;52.834;13.846;2024-03-23T03:03:00;13.50;;;3.17;;
85544;SDS011;75982;52.834;13.846;2024-03-23T03:05:26;17.20;;;3.38;;
85544;SDS011;75982;52.834;13.846;2024-03-23T03:07:51;13.52;;;2.85;;
85544;SDS011;75982;52.834;13.846;2024-03-23T03:10:17;11.13;;;2.58;;
85544;SDS011;75982;52.834;13.846;2024-03-23T03:12:43;6.28;;;2.00;;
85544;SDS011;75982;52.834;13.846;2024-03-23T03:15:08;10.57;;;2.53;;
85544;SDS011;75982;52.834;13.846;2024-03-23T03:17:34;13.88;;;2.55;;
85544;SDS011;75982;52.834;13.846;2024-03-23T03:20:00;13.70;;;2.58;;
85544;SDS011;75982;52.834;13.846;2024-03-23T03:22:25;8.77;;;2.28;;
85544;SDS011;75982;52.834;13.846;2024-03-23T03:24:51;12.77;;;2.40;;
85544;SDS011;75982;52.834;13.846;2024-03-23T03:27:16;10.50;;;2.20;;
85544;SDS011;75982;52.834;13.846;2024-03-23T03:29:43;5.88;;;2.35;;
85544;SDS011;75982;52.834;13.846;2024-03-23T03:32:08;11.70;;;2.30;;
85544;SDS011;75982;52.834;13.846;2024-03-23T03:34:34;8.50;;;2.28;;
85544;SDS011;75982;52.834;13.846;2024-03-23T03:36:59;6.05;;;2.40;;
85544;SDS011;75982;52.834;13.846;2024-03-23T03:39:25;15.23;;;3.42;;
85544;SDS011;75982;52.834;13.846;2024-03-23T03:41:51;10.10;;;2.55;;
85544;SDS011;75982;52.834;13.846;2024-03-23T03:44:17;11.63;;;2.90;;
85544;SDS011;75982;52.834;13.846;2024-03-23T03:46:42;9.52;;;3.10;;
85544;SDS011;75982;52.834;13.846;2024-03-23T03:49:08;12.93;;;3.38;;
85544;SDS011;75982;52.834;13.846;2024-03-23T03:51:34;10.70;;;2.58;;
85544;SDS011;75982;52.834;13.846;2024-03-23T03:53:59;11.95;;;3.20;;
85544;SDS011;75982;52.834;13.846;2024-03-23T03:56:25;4.82;;;2.05;;
85544;SDS011;75982;52.834;13.846;2024-03-23T03:58:50;8.52;;;3.10;;
85544;SDS011;75982;52.834;13.846;2024-03-23T04:01:16;12.02;;;2.60;;
85544;SDS011;75982;52.834;13.846;2024-03-23T04:03:43;6.28;;;2.38;;
85544;SDS011;75982;52.834;13.846;2024-03-23T04:06:09;6.80;;;2.33;;
85544;SDS011;75982;52.834;13.846;2024-03-23T04:08:34;8.20;;;2.40;;
85544;SDS011;75982;52.834;13.846;2024-03-23T04:11:00;6.07;;;2.33;;
85544;SDS011;75982;52.834;13.846;2024-03-23T04:13:26;5.13;;;2.15;;
85544;SDS011;75982;52.834;13.846;2024-03-23T04:15:55;12.25;;;2.20;;
85544;SDS011;75982;52.834;13.846;2024-03-23T04:18:21;11.75;;;2.75;;
85544;SDS011;75982;52.834;13.846;2024-03-23T04:20:47;12.30;;;2.70;;
85544;SDS011;75982;52.834;13.846;2024-03-23T04:23:13;5.35;;;1.95;;
85544;SDS011;75982;52.834;13.846;2024-03-23T04:25:39;11.82;;;2.70;;
85544;SDS011;75982;52.834;13.846;2024-03-23T04:28:05;11.73;;;2.83;;
85544;SDS011;75982;52.834;13.846;2024-03-23T04:30:30;10.90;;;3.35;;
85544;SDS011;75982;52.834;13.846;2024-03-23T04:32:56;10.93;;;2.78;;
85544;SDS011;75982;52.834;13.846;2024-03-23T04:35:22;11.68;;;2.60;;
85544;SDS011;75982;52.834;13.846;2024-03-23T04:37:48;11.98;;;2.40;;
85544;SDS011;75982;52.834;13.846;2024-03-23T04:40:13;11.05;;;2.30;;
85544;SDS011;75982;52.834;13.846;2024-03-23T04:42:39;6.05;;;2.30;;
85544;SDS011;75982;52.834;13.846;2024-03-23T04:45:05;8.55;;;2.55;;
85544;SDS011;75982;52.834;13.846;2024-03-23T04:47:31;8.75;;;2.40;;
85544;SDS011;75982;52.834;13.846;2024-03-23T04:49:56;9.85;;;2.45;;
85544;SDS011;75982;52.834;13.846;2024-03-23T04:52:22;9.75;;;2.85;;
85544;SDS011;75982;52.834;13.846;2024-03-23T04:54:47;12.18;;;2.45;;
85544;SDS011;75982;52.834;13.846;2024-03-23T04:57:13;6.68;;;2.50;;
85544;SDS011;75982;52.834;13.846;2024-03-23T04:59:38;5.65;;;2.53;;
85544;SDS011;75982;52.834;13.846;2024-03-23T05:02:04;6.05;;;2.33;;
85544;SDS011;75982;52.834;13.846;2024-03-23T05:04:30;10.45;;;4.00;;
85544;SDS011;75982;52.834;13.846;2024-03-23T05:06:56;6.57;;;2.78;;
85544;SDS011;75982;52.834;13.846;2024-03-23T05:09:21;9.52;;;2.60;;
85544;SDS011;75982;52.834;13.846;2024-03-23T05:11:47;10.02;;;2.60;;
85544;SDS011;75982;52.834;13.846;2024-03-23T05:14:13;15.85;;;3.50;;
85544;SDS011;75982;52.834;13.846;2024-03-23T05:16:39;9.93;;;2.63;;
85544;SDS011;75982;52.834;13.846;2024-03-23T05:19:05;8.43;;;2.63;;
85544;SDS011;75982;52.834;13.846;2024-03-23T05:21:31;9.20;;;2.28;;
85544;SDS011;75982;52.834;13.846;2024-03-23T05:23:56;10.52;;;2.88;;
85544;SDS011;75982;52.834;13.846;2024-03-23T05:26:22;7.18;;;2.15;;
85544;SDS011;75982;52.834;13.846;2024-03-23T05:28:48;9.38;;;3.00;;
85544;SDS011;75982;52.834;13.846;2024-03-23T05:31:27;14.45;;;4.20;;
85544;SDS011;75982;52.834;13.846;2024-03-23T05:33:55;14.35;;;6.82;;
85544;SDS011;75982;52.834;13.846;2024-03-23T05:36:21;13.20;;;5.63;;
85544;SDS011;75982;52.834;13.846;2024-03-23T05:38:47;7.40;;;3.03;;
85544;SDS011;75982;52.834;13.846;2024-03-23T05:41:13;24.02;;;8.27;;
85544;SDS011;75982;52.834;13.846;2024-03-23T05:43:39;15.55;;;5.75;;
85544;SDS011;75982;52.834;13.846;2024-03-23T05:46:05;13.48;;;5.38;;
85544;SDS011;75982;52.834;13.846;2024-03-23T05:48:30;11.93;;;4.72;;
85544;SDS011;75982;52.834;13.846;2024-03-23T05:50:56;7.70;;;2.65;;
85544;SDS011;75982;52.834;13.846;2024-03-23T05:53:22;6.43;;;2.50;;
85544;SDS011;75982;52.834;13.846;2024-03-23T05:55:49;10.05;;;1.95;;
85544;SDS011;75982;52.834;13.846;2024-03-23T05:58:16;9.23;;;3.28;;
85544;SDS011;75982;52.834;13.846;2024-03-23T06:00:42;6.00;;;2.00;;
85544;SDS011;75982;52.834;13.846;2024-03-23T06:03:08;5.72;;;2.00;;
85544;SDS011;75982;52.834;13.846;2024-03-23T06:05:34;4.50;;;2.03;;
85544;SDS011;75982;52.834;13.846;2024-03-23T06:08:00;3.30;;;1.58;;
85544;SDS011;75982;52.834;13.846;2024-03-23T06:10:25;6.65;;;1.90;;
85544;SDS011;75982;52.834;13.846;2024-03-23T06:12:51;5.22;;;2.03;;
85544;SDS011;75982;52.834;13.846;2024-03-23T06:15:17;3.95;;;1.50;;
85544;SDS011;75982;52.834;13.846;2024-03-23T06:17:45;3.67;;;1.42;;
85544;SDS011;75982;52.834;13.846;2024-03-23T06:20:12;3.30;;;1.60;;
85544;SDS011;75982;52.834;13.846;2024-03-23T06:22:38;5.05;;;1.92;;
85544;SDS011;75982;52.834;13.846;2024-03-23T06:25:03;6.53;;;1.73;;
85544;SDS011;75982;52.834;13.846;2024-03-23T06:27:30;6.05;;;1.73;;
85544;SDS011;75982;52.834;13.846;2024-03-23T06:29:55;5.22;;;1.67;;
85544;SDS011;75982;52.834;13.846;2024-03-23T06:32:21;6.95;;;1.80;;
85544;SDS011;75982;52.834;13.846;2024-03-23T06:34:47;5.78;;;1.73;;
85544;SDS011;75982;52.834;13.846;2024-03-23T06:37:13;3.00;;;1.73;;
85544;SDS011;75982;52.834;13.846;2024-03-23T06:39:38;4.38;;;1.30;;
85544;SDS011;75982;52.834;13.846;2024-03-23T06:42:04;4.95;;;1.42;;
85544;SDS011;75982;52.834;13.846;2024-03-23T06:44:30;2.78;;;1.33;;
85544;SDS011;75982;52.834;13.846;2024-03-23T06:46:57;6.05;;;2.20;;
85544;SDS011;75982;52.834;13.846;2024-03-23T06:49:23;3.80;;;1.75;;
85544;SDS011;75982;52.834;13.846;2024-03-23T06:51:49;11.23;;;5.35;;
85544;SDS011;75982;52.834;13.846;2024-03-23T06:54:18;6.30;;;2.97;;
85544;SDS011;75982;52.834;13.846;2024-03-23T06:56:45;6.68;;;2.38;;
85544;SDS011;75982;52.834;13.846;2024-03-23T06:59:10;3.55;;;1.48;;
85544;SDS011;75982;52.834;13.846;2024-03-23T07:01:36;3.70;;;1.80;;
85544;SDS011;75982;52.834;13.846;2024-03-23T07:04:02;4.82;;;1.75;;
85544;SDS011;75982;52.834;13.846;2024-03-23T07:06:27;4.35;;;1.25;;
85544;SDS011;75982;52.834;13.846;2024-03-23T07:08:53;3.47;;;1.30;;
85544;SDS011;75982;52.834;13.846;2024-03-23T07:11:19;3.72;;;1.33;;
85544;SDS011;75982;52.834;13.846;2024-03-23T07:13:45;7.50;;;1.27;;
85544;SDS011;75982;52.834;13.846;2024-03-23T07:16:12;4.75;;;1.40;;
85544;SDS011;75982;52.834;13.846;2024-03-23T07:18:38;5.05;;;1.77;;
85544;SDS011;75982;52.834;13.846;2024-03-23T07:21:04;4.82;;;1.33;;
85544;SDS011;75982;52.834;13.846;2024-03-23T07:23:29;2.97;;;1.20;;
85544;SDS011;75982;52.834;13.846;2024-03-23T07:28:31;2.92;;;1.10;;
85544;SDS011;75982;52.834;13.846;2024-03-23T07:31:15;4.15;;;1.10;;
85544;SDS011;75982;52.834;13.846;2024-03-23T07:33:41;5.35;;;1.20;;
85544;SDS011;75982;52.834;13.846;2024-03-23T07:36:11;2.83;;;0.90;;
85544;SDS011;75982;52.834;13.846;2024-03-23T07:38:39;3.78;;;1.33;;
85544;SDS011;75982;52.834;13.846;2024-03-23T07:41:09;2.47;;;1.20;;
85544;SDS011;75982;52.834;13.846;2024-03-23T07:43:40;2.60;;;1.02;;
85544;SDS011;75982;52.834;13.846;2024-03-23T07:46:06;3.00;;;1.17;;
85544;SDS011;75982;52.834;13.846;2024-03-23T07:48:32;2.85;;;1.00;;
85544;SDS011;75982;52.834;13.846;2024-03-23T07:51:05;2.63;;;1.00;;
85544;SDS011;75982;52.834;13.846;2024-03-23T07:53:33;3.70;;;1.20;;
85544;SDS011;75982;52.834;13.846;2024-03-23T07:56:06;4.40;;;1.52;;
85544;SDS011;75982;52.834;13.846;2024-03-23T07:58:33;4.97;;;1.40;;
85544;SDS011;75982;52.834;13.846;2024-03-23T08:01:06;3.45;;;1.48;;
85544;SDS011;75982;52.834;13.846;2024-03-23T08:03:35;4.80;;;1.20;;
85544;SDS011;75982;52.834;13.846;2024-03-23T08:06:14;4.32;;;1.00;;
85544;SDS011;75982;52.834;13.846;2024-03-23T08:11:09;5.45;;;1.63;;
85544;SDS011;75982;52.834;13.846;2024-03-23T08:13:36;2.47;;;1.50;;
85544;SDS011;75982;52.834;13.846;2024-03-23T08:16:03;3.30;;;1.15;;
85544;SDS011;75982;52.834;13.846;2024-03-23T08:18:29;3.35;;;1.17;;
85544;SDS011;75982;52.834;13.846;2024-03-23T08:23:33;1.17;;;0.82;;
85544;SDS011;75982;52.834;13.846;2024-03-23T08:26:00;4.28;;;1.15;;
85544;SDS011;75982;52.834;13.846;2024-03-23T08:28:27;2.42;;;1.00;;
85544;SDS011;75982;52.834;13.846;2024-03-23T08:30:53;4.78;;;1.30;;
85544;SDS011;75982;52.834;13.846;2024-03-23T08:33:20;3.58;;;1.27;;
85544;SDS011;75982;52.834;13.846;2024-03-23T08:35:53;2.70;;;1.10;;
85544;SDS011;75982;52.834;13.846;2024-03-23T08:38:19;4.68;;;1.38;;
85544;SDS011;75982;52.834;13.846;2024-03-23T08:40:45;4.88;;;1.38;;
85544;SDS011;75982;52.834;13.846;2024-03-23T08:43:10;3.80;;;1.27;;
85544;SDS011;75982;52.834;13.846;2024-03-23T08:45:36;5.45;;;1.60;;
85544;SDS011;75982;52.834;13.846;2024-03-23T08:48:02;4.38;;;1.17;;
85544;SDS011;75982;52.834;13.846;2024-03-23T08:50:27;4.88;;;1.30;;
85544;SDS011;75982;52.834;13.846;2024-03-23T08:52:53;3.33;;;1.55;;
85544;SDS011;75982;52.834;13.846;2024-03-23T08:55:19;5.53;;;1.80;;
85544;SDS011;75982;52.834;13.846;2024-03-23T08:57:44;3.20;;;1.50;;
85544;SDS011;75982;52.834;13.846;2024-03-23T09:00:10;5.78;;;1.70;;
85544;SDS011;75982;52.834;13.846;2024-03-23T09:02:36;3.67;;;1.33;;
85544;SDS011;75982;52.834;13.846;2024-03-23T09:05:02;2.97;;;1.58;;
85544;SDS011;75982;52.834;13.846;2024-03-23T09:07:27;8.38;;;3.45;;
85544;SDS011;75982;52.834;13.846;2024-03-23T09:09:53;5.28;;;1.88;;
85544;SDS011;75982;52.834;13.846;2024-03-23T09:12:18;7.00;;;2.70;;
85544;SDS011;75982;52.834;13.846;2024-03-23T09:14:44;12.02;;;6.35;;
85544;SDS011;75982;52.834;13.846;2024-03-23T09:17:10;6.88;;;3.10;;
85544;SDS011;75982;52.834;13.846;2024-03-23T09:19:35;3.88;;;1.50;;
85544;SDS011;75982;52.834;13.846;2024-03-23T09:22:01;4.53;;;1.60;;
85544;SDS011;75982;52.834;13.846;2024-03-23T09:24:27;5.03;;;1.80;;
85544;SDS011;75982;52.834;13.846;2024-03-23T09:26:52;4.72;;;2.15;;
85544;SDS011;75982;52.834;13.846;2024-03-23T09:29:18;6.28;;;2.05;;
85544;SDS011;75982;52.834;13.846;2024-03-23T09:31:43;5.30;;;2.25;;
85544;SDS011;75982;52.834;13.846;2024-03-23T09:34:09;5.97;;;1.85;;
85544;SDS011;75982;52.834;13.846;2024-03-23T09:36:35;4.40;;;2.03;;
85544;SDS011;75982;52.834;13.846;2024-03-23T09:39:01;5.50;;;1.75;;
85544;SDS011;75982;52.834;13.846;2024-03-23T09:41:27;5.68;;;1.55;;
85544;SDS011;75982;52.834;13.846;2024-03-23T09:43:53;6.78;;;1.25;;
85544;SDS011;75982;52.834;13.846;2024-03-23T09:46:19;4.55;;;1.20;;
85544;SDS011;75982;52.834;13.846;2024-03-23T09:48:46;5.40;;;1.75;;
85544;SDS011;75982;52.834;13.846;2024-03-23T09:51:11;3.53;;;1.45;;
85544;SDS011;75982;52.834;13.846;2024-03-23T09:53:37;4.68;;;1.58;;
85544;SDS011;75982;52.834;13.846;2024-03-23T09:56:03;3.90;;;1.67;;
85544;SDS011;75982;52.834;13.846;2024-03-23T09:58:29;4.43;;;2.33;;
85544;SDS011;75982;52.834;13.846;2024-03-23T10:00:55;4.88;;;1.75;;
85544;SDS011;75982;52.834;13.846;2024-03-23T10:03:20;3.03;;;0.80;;
85544;SDS011;75982;52.834;13.846;2024-03-23T10:05:46;5.95;;;0.80;;
85544;SDS011;75982;52.834;13.846;2024-03-23T10:10:42;4.68;;;1.10;;
85544;SDS011;75982;52.834;13.846;2024-03-23T10:13:09;4.13;;;1.17;;
85544;SDS011;75982;52.834;13.846;2024-03-23T10:15:35;6.20;;;1.60;;
85544;SDS011;75982;52.834;13.846;2024-03-23T10:18:17;2.63;;;1.08;;
85544;SDS011;75982;52.834;13.846;2024-03-23T10:20:44;4.03;;;0.90;;
85544;SDS011;75982;52.834;13.846;2024-03-23T10:23:16;3.88;;;0.90;;
85544;SDS011;75982;52.834;13.846;2024-03-23T10:25:42;7.15;;;2.08;;
85544;SDS011;75982;52.834;13.846;2024-03-23T10:28:08;2.72;;;0.90;;
85544;SDS011;75982;52.834;13.846;2024-03-23T10:30:33;4.90;;;3.00;;
85544;SDS011;75982;52.834;13.846;2024-03-23T10:33:11;6.43;;;1.95;;
85544;SDS011;75982;52.834;13.846;2024-03-23T10:35:37;4.22;;;1.25;;
85544;SDS011;75982;52.834;13.846;2024-03-23T10:38:06;3.00;;;1.20;;
85544;SDS011;75982;52.834;13.846;2024-03-23T10:40:36;1.65;;;0.65;;
85544;SDS011;75982;52.834;13.846;2024-03-23T10:43:03;5.32;;;0.95;;
85544;SDS011;75982;52.834;13.846;2024-03-23T10:45:29;3.08;;;2.13;;
85544;SDS011;75982;52.834;13.846;2024-03-23T10:47:55;2.70;;;1.10;;
85544;SDS011;75982;52.834;13.846;2024-03-23T10:50:21;4.35;;;1.35;;
85544;SDS011;75982;52.834;13.846;2024-03-23T10:52:48;2.38;;;0.82;;
85544;SDS011;75982;52.834;13.846;2024-03-23T10:55:15;3.75;;;0.77;;
85544;SDS011;75982;52.834;13.846;2024-03-23T10:57:54;2.13;;;0.90;;
85544;SDS011;75982;52.834;13.846;2024-03-23T11:00:24;5.82;;;1.98;;
85544;SDS011;75982;52.834;13.846;2024-03-23T11:02:51;3.83;;;2.35;;
85544;SDS011;75982;52.834;13.846;2024-03-23T11:07:51;5.20;;;4.18;;
85544;SDS011;75982;52.834;13.846;2024-03-23T11:10:27;8.77;;;3.95;;
85544;SDS011;75982;52.834;13.846;2024-03-23T11:13:21;6.47;;;2.75;;
85544;SDS011;75982;52.834;13.846;2024-03-23T11:15:48;5.40;;;2.40;;
85544;SDS011;75982;52.834;13.846;2024-03-23T11:18:20;5.43;;;1.65;;
85544;SDS011;75982;52.834;13.846;2024-03-23T11:20:46;2.55;;;1.60;;
85544;SDS011;75982;52.834;13.846;2024-03-23T11:23:27;5.40;;;2.25;;
85544;SDS011;75982;52.834;13.846;2024-03-23T11:25:53;4.18;;;1.30;;
85544;SDS011;75982;52.834;13.846;2024-03-23T11:28:19;3.85;;;1.48;;
85544;SDS011;75982;52.834;13.846;2024-03-23T11:30:45;5.72;;;1.27;;
85544;SDS011;75982;52.834;13.846;2024-03-23T11:33:10;4.82;;;1.92;;
85544;SDS011;75982;52.834;13.846;2024-03-23T11:35:39;3.70;;;1.50;;
85544;SDS011;75982;52.834;13.846;2024-03-23T11:38:15;6.03;;;3.63;;
85544;SDS011;75982;52.834;13.846;2024-03-23T11:40:43;2.13;;;1.17;;
85544;SDS011;75982;52.834;13.846;2024-03-23T11:43:10;5.10;;;1.50;;
85544;SDS011;75982;52.834;13.846;2024-03-23T11:48:10;4.72;;;1.30;;
85544;SDS011;75982;52.834;13.846;2024-03-23T11:50:41;1.58;;;1.05;;
85544;SDS011;75982;52.834;13.846;2024-03-23T11:53:17;4.30;;;1.30;;
85544;SDS011;75982;52.834;13.846;2024-03-23T11:55:48;8.70;;;1.50;;
85544;SDS011;75982;52.834;13.846;2024-03-23T11:58:18;2.70;;;1.10;;
85544;SDS011;75982;52.834;13.846;2024-03-23T12:00:59;2.60;;;1.30;;
85544;SDS011;75982;52.834;13.846;2024-03-23T12:03:26;3.47;;;1.10;;
85544;SDS011;75982;52.834;13.846;2024-03-23T12:05:52;8.15;;;2.92;;
85544;SDS011;75982;52.834;13.846;2024-03-23T12:08:19;6.72;;;2.17;;
85544;SDS011;75982;52.834;13.846;2024-03-23T12:10:49;6.03;;;1.45;;
85544;SDS011;75982;52.834;13.846;2024-03-23T12:13:22;5.80;;;1.40;;
85544;SDS011;75982;52.834;13.846;2024-03-23T12:15:50;3.55;;;1.40;;
85544;SDS011;75982;52.834;13.846;2024-03-23T12:18:16;5.05;;;1.50;;
85544;SDS011;75982;52.834;13.846;2024-03-23T12:20:49;4.43;;;1.77;;
85544;SDS011;75982;52.834;13.846;2024-03-23T12:23:15;5.47;;;2.17;;
85544;SDS011;75982;52.834;13.846;2024-03-23T12:25:40;7.57;;;1.75;;
85544;SDS011;75982;52.834;13.846;2024-03-23T12:28:06;4.50;;;1.45;;
85544;SDS011;75982;52.834;13.846;2024-03-23T12:30:33;6.75;;;1.52;;
85544;SDS011;75982;52.834;13.846;2024-03-23T12:33:04;4.65;;;1.88;;
85544;SDS011;75982;52.834;13.846;2024-03-23T12:35:30;7.20;;;1.65;;
85544;SDS011;75982;52.834;13.846;2024-03-23T12:37:55;4.88;;;1.77;;
85544;SDS011;75982;52.834;13.846;2024-03-23T12:40:21;4.88;;;1.73;;
85544;SDS011;75982;52.834;13.846;2024-03-23T12:42:47;3.88;;;1.40;;
85544;SDS011;75982;52.834;13.846;2024-03-23T12:45:12;5.78;;;2.08;;
85544;SDS011;75982;52.834;13.846;2024-03-23T12:47:38;9.38;;;2.10;;
85544;SDS011;75982;52.834;13.846;2024-03-23T12:50:04;6.13;;;2.40;;
85544;SDS011;75982;52.834;13.846;2024-03-23T12:52:29;4.75;;;1.95;;
85544;SDS011;75982;52.834;13.846;2024-03-23T12:54:55;5.63;;;1.95;;
85544;SDS011;75982;52.834;13.846;2024-03-23T12:57:22;7.38;;;2.13;;
85544;SDS011;75982;52.834;13.846;2024-03-23T12:59:53;9.50;;;3.38;;
85544;SDS011;75982;52.834;13.846;2024-03-23T13:02:19;7.90;;;2.80;;
85544;SDS011;75982;52.834;13.846;2024-03-23T13:04:46;9.52;;;2.60;;
85544;SDS011;75982;52.834;13.846;2024-03-23T13:09:40;10.30;;;2.45;;
85544;SDS011;75982;52.834;13.846;2024-03-23T13:12:06;6.25;;;2.35;;
85544;SDS011;75982;52.834;13.846;2024-03-23T13:14:31;7.88;;;2.22;;
85544;SDS011;75982;52.834;13.846;2024-03-23T13:16:57;8.25;;;2.30;;
85544;SDS011;75982;52.834;13.846;2024-03-23T13:19:22;11.02;;;2.72;;
85544;SDS011;75982;52.834;13.846;2024-03-23T13:21:48;7.20;;;2.33;;
85544;SDS011;75982;52.834;13.846;2024-03-23T13:24:14;6.05;;;2.38;;
85544;SDS011;75982;52.834;13.846;2024-03-23T13:26:39;8.48;;;2.45;;
85544;SDS011;75982;52.834;13.846;2024-03-23T13:29:05;7.88;;;2.67;;
85544;SDS011;75982;52.834;13.846;2024-03-23T13:31:30;9.40;;;2.67;;
85544;SDS011;75982;52.834;13.846;2024-03-23T13:33:56;9.25;;;2.45;;
85544;SDS011;75982;52.834;13.846;2024-03-23T13:36:22;8.90;;;3.45;;
85544;SDS011;75982;52.834;13.846;2024-03-23T13:38:47;5.15;;;1.88;;
85544;SDS011;75982;52.834;13.846;2024-03-23T13:41:13;7.93;;;3.33;;
85544;SDS011;75982;52.834;13.846;2024-03-23T13:43:39;9.23;;;2.58;;
85544;SDS011;75982;52.834;13.846;2024-03-23T13:46:04;7.65;;;2.10;;
85544;SDS011;75982;52.834;13.846;2024-03-23T13:48:30;9.23;;;2.83;;
85544;SDS011;75982;52.834;13.846;2024-03-23T13:50:59;8.90;;;2.28;;
85544;SDS011;75982;52.834;13.846;2024-03-23T13:53:25;6.68;;;2.42;;
85544;SDS011;75982;52.834;13.846;2024-03-23T13:55:51;6.60;;;2.05;;
85544;SDS011;75982;52.834;13.846;2024-03-23T13:58:16;8.85;;;2.30;;
85544;SDS011;75982;52.834;13.846;2024-03-23T14:00:43;6.38;;;2.08;;
85544;SDS011;75982;52.834;13.846;2024-03-23T14:03:09;10.93;;;2.25;;
85544;SDS011;75982;52.834;13.846;2024-03-23T14:05:35;7.45;;;2.35;;
85544;SDS011;75982;52.834;13.846;2024-03-23T14:08:01;6.53;;;2.53;;
85544;SDS011;75982;52.834;13.846;2024-03-23T14:10:26;7.18;;;2.35;;
85544;SDS011;75982;52.834;13.846;2024-03-23T14:12:52;6.68;;;2.30;;
85544;SDS011;75982;52.834;13.846;2024-03-23T14:15:18;7.18;;;1.95;;
85544;SDS011;75982;52.834;13.846;2024-03-23T14:17:44;5.63;;;1.95;;
85544;SDS011;75982;52.834;13.846;2024-03-23T14:20:10;7.47;;;2.63;;
85544;SDS011;75982;52.834;13.846;2024-03-23T14:22:36;7.88;;;2.28;;
85544;SDS011;75982;52.834;13.846;2024-03-23T14:25:02;6.53;;;2.05;;
85544;SDS011;75982;52.834;13.846;2024-03-23T14:27:28;7.75;;;2.05;;
85544;SDS011;75982;52.834;13.846;2024-03-23T14:29:54;6.43;;;1.75;;
85544;SDS011;75982;52.834;13.846;2024-03-23T14:32:19;7.65;;;1.85;;
85544;SDS011;75982;52.834;13.846;2024-03-23T14:34:45;8.82;;;2.20;;
85544;SDS011;75982;52.834;13.846;2024-03-23T14:37:10;4.80;;;2.00;;
85544;SDS011;75982;52.834;13.846;2024-03-23T14:39:36;3.53;;;1.83;;
85544;SDS011;75982;52.834;13.846;2024-03-23T14:42:01;3.20;;;1.50;;
85544;SDS011;75982;52.834;13.846;2024-03-23T14:44:27;5.18;;;2.20;;
85544;SDS011;75982;52.834;13.846;2024-03-23T14:46:53;6.95;;;1.77;;
85544;SDS011;75982;52.834;13.846;2024-03-23T14:49:19;6.82;;;1.92;;
85544;SDS011;75982;52.834;13.846;2024-03-23T14:51:44;4.50;;;1.67;;
85544;SDS011;75982;52.834;13.846;2024-03-23T14:54:10;4.80;;;1.52;;
85544;SDS011;75982;52.834;13.846;2024-03-23T14:56:35;4.57;;;1.77;;
85544;SDS011;75982;52.834;13.846;2024-03-23T14:59:01;4.28;;;2.35;;
85544;SDS011;75982;52.834;13.846;2024-03-23T15:01:27;3.05;;;2.13;;
85544;SDS011;75982;52.834;13.846;2024-03-23T15:03:52;3.85;;;1.50;;
85544;SDS011;75982;52.834;13.846;2024-03-23T15:06:18;4.45;;;2.17;;
85544;SDS011;75982;52.834;13.846;2024-03-23T15:08:43;4.93;;;1.30;;
85544;SDS011;75982;52.834;13.846;2024-03-23T15:11:09;3.17;;;1.38;;
85544;SDS011;75982;52.834;13.846;2024-03-23T15:13:35;1.90;;;1.17;;
85544;SDS011;75982;52.834;13.846;2024-03-23T15:16:02;1.77;;;0.90;;
85544;SDS011;75982;52.834;13.846;2024-03-23T15:18:28;2.50;;;1.30;;
85544;SDS011;75982;52.834;13.846;2024-03-23T15:21:00;3.65;;;1.50;;
85544;SDS011;75982;52.834;13.846;2024-03-23T15:23:27;3.75;;;2.33;;
85544;SDS011;75982;52.834;13.846;2024-03-23T15:25:56;4.18;;;1.98;;
85544;SDS011;75982;52.834;13.846;2024-03-23T15:28:25;6.72;;;1.85;;
85544;SDS011;75982;52.834;13.846;2024-03-23T15:30:52;3.58;;;2.05;;
85544;SDS011;75982;52.834;13.846;2024-03-23T15:33:18;4.00;;;2.50;;
85544;SDS011;75982;52.834;13.846;2024-03-23T15:35:43;4.90;;;1.90;;